createdAt,value
2019-05-04T00:00:15.197Z,9.10
2019-05-04T00:01:19.055Z,8.30
2019-05-04T00:02:24.861Z,8.90
2019-05-04T00:03:30.068Z,8.60
2019-05-04T00:04:35.590Z,8.70
2019-05-04T00:05:41.085Z,9.00
2019-05-04T00:06:48.833Z,8.80
2019-05-04T00:07:52.104Z,9.10
2019-05-04T00:08:57.619Z,6.10
2019-05-04T00:10:05.447Z,3.90
2019-05-04T00:11:08.632Z,3.90
2019-05-04T00:12:15.054Z,3.50
2019-05-04T00:13:19.650Z,4.00
2019-05-04T00:14:25.155Z,4.10
2019-05-04T00:15:30.661Z,3.50
2019-05-04T00:16:36.169Z,3.60
2019-05-04T00:17:41.684Z,3.30
2019-05-04T00:18:47.196Z,3.20
2019-05-04T00:19:54.720Z,4.40
2019-05-04T00:20:58.205Z,2.90
2019-05-04T00:22:04.925Z,3.00
2019-05-04T00:23:09.222Z,3.40
2019-05-04T00:24:14.906Z,2.80
2019-05-04T00:25:20.247Z,2.50
2019-05-04T00:26:25.750Z,3.70
2019-05-04T00:27:31.259Z,2.70
2019-05-04T00:28:36.770Z,3.70
2019-05-04T00:29:42.272Z,3.60
2019-05-04T00:30:47.792Z,3.00
2019-05-04T00:31:54.776Z,3.00
2019-05-04T00:32:58.799Z,2.50
2019-05-04T00:34:04.886Z,3.50
2019-05-04T00:35:09.811Z,2.70
2019-05-04T00:36:15.768Z,4.70
2019-05-04T00:37:20.832Z,3.80
2019-05-04T00:38:26.339Z,3.80
2019-05-04T00:39:31.844Z,3.20
2019-05-04T00:40:37.356Z,3.60
2019-05-04T00:41:44.785Z,3.00
2019-05-04T00:42:48.373Z,4.70
2019-05-04T00:43:54.794Z,3.00
2019-05-04T00:44:59.389Z,4.20
2019-05-04T00:46:05.061Z,4.00
2019-05-04T00:47:10.409Z,3.60
2019-05-04T00:48:15.908Z,3.50
2019-05-04T00:49:21.417Z,2.60
2019-05-04T00:50:26.929Z,3.90
2019-05-04T00:51:32.435Z,4.90
2019-05-04T00:52:37.945Z,3.10
2019-05-04T00:53:45.352Z,3.10
2019-05-04T00:54:48.959Z,3.40
2019-05-04T00:55:54.803Z,3.60
2019-05-04T00:56:59.971Z,3.40
2019-05-04T00:58:05.489Z,3.70
2019-05-04T00:59:10.990Z,5.00
2019-05-04T01:00:16.520Z,4.40
2019-05-04T01:01:22.001Z,3.30
2019-05-04T01:02:27.514Z,2.90
2019-05-04T01:03:34.982Z,3.70
2019-05-04T01:04:38.531Z,3.20
2019-05-04T01:05:44.512Z,3.90
2019-05-04T01:06:49.539Z,6.20
2019-05-04T01:07:55.047Z,4.60
2019-05-04T01:09:00.579Z,5.00
2019-05-04T01:10:06.067Z,4.10
2019-05-04T01:11:11.579Z,5.20
2019-05-04T01:12:17.082Z,5.40
2019-05-04T01:13:24.684Z,3.40
2019-05-04T01:14:28.106Z,4.70
2019-05-04T01:15:35.191Z,4.20
2019-05-04T01:16:39.113Z,4.00
2019-05-04T01:17:45.300Z,2.70
2019-05-04T01:18:50.125Z,4.30
2019-05-04T01:19:55.639Z,3.80
2019-05-04T01:21:01.143Z,4.00
2019-05-04T01:22:06.652Z,4.00
2019-05-04T01:23:12.160Z,4.30
2019-05-04T01:24:17.675Z,5.80
2019-05-04T01:25:24.691Z,3.70
2019-05-04T01:26:28.679Z,6.10
2019-05-04T01:27:35.376Z,4.50
2019-05-04T01:28:39.693Z,3.90
2019-05-04T01:29:45.570Z,5.10
2019-05-04T01:30:50.715Z,6.40
2019-05-04T01:31:56.219Z,4.70
2019-05-04T01:33:01.724Z,3.80
2019-05-04T01:34:07.239Z,4.50
2019-05-04T01:35:12.742Z,6.00
2019-05-04T01:36:18.244Z,6.20
2019-05-04T01:37:32.035Z,5.40
2019-05-04T01:38:29.339Z,5.00
2019-05-04T01:39:35.458Z,5.80
2019-05-04T01:40:40.284Z,4.90
2019-05-04T01:41:45.786Z,4.20
2019-05-04T01:42:51.292Z,4.60
2019-05-04T01:43:56.800Z,4.90
2019-05-04T01:45:02.305Z,3.00
2019-05-04T01:46:07.821Z,4.60
2019-05-04T01:47:15.323Z,5.40
2019-05-04T01:48:18.827Z,7.10
2019-05-04T01:49:25.523Z,7.00
2019-05-04T01:50:29.848Z,7.60
2019-05-04T01:51:35.532Z,5.20
2019-05-04T01:52:40.862Z,5.00
2019-05-04T01:53:46.366Z,5.00
2019-05-04T01:54:51.869Z,5.60
2019-05-04T01:55:57.377Z,5.50
2019-05-04T01:57:02.885Z,5.30
2019-05-04T01:58:08.398Z,5.50
2019-05-04T01:59:14.791Z,5.40
2019-05-04T02:00:19.411Z,6.40
2019-05-04T02:01:25.865Z,4.80
2019-05-04T02:02:30.427Z,4.50
2019-05-04T02:03:35.935Z,4.40
2019-05-04T02:04:41.435Z,5.30
2019-05-04T02:05:46.950Z,5.30
2019-05-04T02:06:52.449Z,3.80
2019-05-04T02:07:57.967Z,3.60
2019-05-04T02:09:04.919Z,5.20
2019-05-04T02:10:08.980Z,4.00
2019-05-04T02:11:15.008Z,5.40
2019-05-04T02:12:20.002Z,6.40
2019-05-04T02:13:25.499Z,6.00
2019-05-04T02:14:31.004Z,4.70
2019-05-04T02:15:36.517Z,5.60
2019-05-04T02:16:42.019Z,4.90
2019-05-04T02:17:47.536Z,4.00
2019-05-04T02:18:54.702Z,3.50
2019-05-04T02:19:58.554Z,5.60
2019-05-04T02:21:04.480Z,5.00
2019-05-04T02:22:09.559Z,4.10
2019-05-04T02:23:15.062Z,5.00
2019-05-04T02:24:20.583Z,6.50
2019-05-04T02:25:26.079Z,4.30
2019-05-04T02:26:31.588Z,4.20
2019-05-04T02:27:37.098Z,5.10
2019-05-04T02:28:42.610Z,5.30
2019-05-04T02:29:48.109Z,3.70
2019-05-04T02:30:56.645Z,6.90
2019-05-04T02:31:59.124Z,4.20
2019-05-04T02:33:06.263Z,4.50
2019-05-04T02:34:10.143Z,5.60
2019-05-04T02:35:16.758Z,5.40
2019-05-04T02:36:21.164Z,5.20
2019-05-04T02:37:27.850Z,4.60
2019-05-04T02:38:32.169Z,6.10
2019-05-04T02:39:37.678Z,8.30
2019-05-04T02:40:51.245Z,5.30
2019-05-04T02:41:48.698Z,6.80
2019-05-04T02:42:56.531Z,4.40
2019-05-04T02:43:59.710Z,4.70
2019-05-04T02:45:05.836Z,8.10
2019-05-04T02:46:10.723Z,5.80
2019-05-04T02:47:16.230Z,5.70
2019-05-04T02:48:21.746Z,5.00
2019-05-04T02:49:27.247Z,3.80
2019-05-04T02:50:35.595Z,4.30
2019-05-04T02:51:38.261Z,4.10
2019-05-04T02:52:46.042Z,5.60
2019-05-04T02:53:49.278Z,4.50
2019-05-04T02:54:56.274Z,4.70
2019-05-04T02:56:00.291Z,4.80
2019-05-04T02:57:06.108Z,4.30
2019-05-04T02:58:11.307Z,3.90
2019-05-04T02:59:16.814Z,5.50
2019-05-04T03:00:22.327Z,5.20
2019-05-04T03:01:27.836Z,3.60
2019-05-04T03:02:35.607Z,4.40
2019-05-04T03:03:38.842Z,10.30
2019-05-04T03:04:45.530Z,5.50
2019-05-04T03:05:49.854Z,4.00
2019-05-04T03:06:56.260Z,3.60
2019-05-04T03:08:00.879Z,4.50
2019-05-04T03:09:06.473Z,4.50
2019-05-04T03:10:11.887Z,5.10
2019-05-04T03:11:17.393Z,4.70
2019-05-04T03:12:25.836Z,4.50
2019-05-04T03:13:28.405Z,5.50
2019-05-04T03:14:36.611Z,4.00
2019-05-04T03:15:39.420Z,5.00
2019-05-04T03:16:49.376Z,5.60
2019-05-04T03:17:50.438Z,4.50
2019-05-04T03:18:55.978Z,5.50
2019-05-04T03:20:01.456Z,5.10
2019-05-04T03:21:06.966Z,4.90
2019-05-04T03:22:15.303Z,3.60
2019-05-04T03:23:17.986Z,3.50
2019-05-04T03:24:25.224Z,4.70
2019-05-04T03:25:28.984Z,4.40
2019-05-04T03:26:36.253Z,3.80
2019-05-04T03:27:40.018Z,4.20
2019-05-04T03:28:46.197Z,3.80
2019-05-04T03:29:51.029Z,4.80
2019-05-04T03:30:58.719Z,5.00
2019-05-04T03:32:02.032Z,5.50
2019-05-04T03:33:08.781Z,4.70
2019-05-04T03:34:39.535Z,3.80
2019-05-04T03:36:31.988Z,9.50
2019-05-04T03:37:29.584Z,5.50
2019-05-04T03:38:48.646Z,7.30
2019-05-04T03:39:40.579Z,4.10
2019-05-04T03:40:46.402Z,5.10
2019-05-04T03:41:51.603Z,11.60
2019-05-04T03:42:57.107Z,6.20
2019-05-04T03:44:02.615Z,6.50
2019-05-04T03:45:08.125Z,5.10
2019-05-04T03:46:16.106Z,4.40
2019-05-04T03:47:19.136Z,4.80
2019-05-04T03:48:25.111Z,5.40
2019-05-04T03:49:30.150Z,4.70
2019-05-04T03:50:35.953Z,6.50
2019-05-04T03:51:41.166Z,6.40
2019-05-04T03:52:46.669Z,8.20
2019-05-04T03:53:52.175Z,4.10
2019-05-04T03:54:57.682Z,9.00
2019-05-04T03:56:05.959Z,6.20
2019-05-04T03:57:08.701Z,5.30
2019-05-04T03:58:15.494Z,4.90
2019-05-04T03:59:19.713Z,6.40
2019-05-04T04:00:25.873Z,6.70
2019-05-04T04:01:30.714Z,5.30
2019-05-04T04:02:37.629Z,7.10
2019-05-04T04:03:41.740Z,7.20
2019-05-04T04:04:47.249Z,5.50
2019-05-04T04:05:55.772Z,4.90
2019-05-04T04:06:58.273Z,4.60
2019-05-04T04:08:06.076Z,8.80
2019-05-04T04:09:14.720Z,8.70
2019-05-04T04:10:15.697Z,6.20
2019-05-04T04:11:20.295Z,4.70
2019-05-04T04:12:25.804Z,5.40
2019-05-04T04:13:31.304Z,5.60
2019-05-04T04:14:36.811Z,5.40
2019-05-04T04:15:45.150Z,4.80
2019-05-04T04:16:47.836Z,15.80
2019-05-04T04:17:55.661Z,5.20
2019-05-04T04:18:58.840Z,6.00
2019-05-04T04:20:05.745Z,4.10
2019-05-04T04:21:09.865Z,5.20
2019-05-04T04:22:15.896Z,5.60
2019-05-04T04:23:20.868Z,9.90
2019-05-04T04:24:26.381Z,6.00
2019-05-04T04:25:31.889Z,6.70
2019-05-04T04:26:37.389Z,6.70
2019-05-04T04:27:42.905Z,6.20
2019-05-04T04:28:48.405Z,5.90
2019-05-04T04:29:55.890Z,6.20
2019-05-04T04:30:59.422Z,6.10
2019-05-04T04:32:06.330Z,4.60
2019-05-04T04:33:10.435Z,6.00
2019-05-04T04:34:16.051Z,5.50
2019-05-04T04:35:21.513Z,7.20
2019-05-04T04:36:26.966Z,6.00
2019-05-04T04:37:35.655Z,9.30
2019-05-04T04:38:37.991Z,5.10
2019-05-04T04:39:46.105Z,6.70
2019-05-04T04:40:48.989Z,6.90
2019-05-04T04:41:56.119Z,5.90
2019-05-04T04:43:00.004Z,8.80
2019-05-04T04:44:06.121Z,6.90
2019-05-04T04:45:11.034Z,7.70
2019-05-04T04:46:16.524Z,7.90
2019-05-04T04:47:22.056Z,6.80
2019-05-04T04:48:30.016Z,8.20
2019-05-04T04:49:36.332Z,5.90
2019-05-04T04:50:38.557Z,7.30
2019-05-04T04:51:46.076Z,5.90
2019-05-04T04:52:49.563Z,10.30
2019-05-04T04:53:56.278Z,9.00
2019-05-04T04:55:15.312Z,9.90
2019-05-04T04:56:07.269Z,7.60
2019-05-04T04:57:11.591Z,6.90
2019-05-04T04:58:17.107Z,6.90
2019-05-04T04:59:25.266Z,7.10
2019-05-04T05:00:28.115Z,9.20
2019-05-04T05:01:35.780Z,7.30
2019-05-04T05:02:46.070Z,11.50
2019-05-04T05:03:45.985Z,6.70
2019-05-04T05:04:50.149Z,5.80
2019-05-04T05:05:56.129Z,6.50
2019-05-04T05:07:01.155Z,8.50
2019-05-04T05:08:06.674Z,6.20
2019-05-04T05:09:14.625Z,6.00
2019-05-04T05:10:17.694Z,6.00
2019-05-04T05:11:25.397Z,6.50
2019-05-04T05:12:28.690Z,6.40
2019-05-04T05:13:34.288Z,7.50
2019-05-04T05:14:39.714Z,6.60
2019-05-04T05:15:45.218Z,7.70
2019-05-04T05:16:50.728Z,5.80
2019-05-04T05:17:56.238Z,6.20
2019-05-04T05:19:01.753Z,6.70
2019-05-04T05:20:07.249Z,6.20
2019-05-04T05:21:14.456Z,9.20
2019-05-04T05:22:18.262Z,9.30
2019-05-04T05:23:24.578Z,7.80
2019-05-04T05:24:29.282Z,6.50
2019-05-04T05:25:35.048Z,6.00
2019-05-04T05:26:40.293Z,6.30
2019-05-04T05:27:45.806Z,6.90
2019-05-04T05:28:51.309Z,6.10
2019-05-04T05:29:56.814Z,6.20
2019-05-04T05:31:04.484Z,8.30
2019-05-04T05:32:07.825Z,7.90
2019-05-04T05:33:14.781Z,6.80
2019-05-04T05:34:18.839Z,6.50
2019-05-04T05:35:24.905Z,7.30
2019-05-04T05:36:29.851Z,6.40
2019-05-04T05:37:35.448Z,5.40
2019-05-04T05:38:40.873Z,8.20
2019-05-04T05:39:57.527Z,7.10
2019-05-04T05:40:51.882Z,6.40
2019-05-04T05:41:59.570Z,6.10
2019-05-04T05:43:05.109Z,7.30
2019-05-04T05:44:08.409Z,6.10
2019-05-04T05:45:17.806Z,5.20
2019-05-04T05:46:19.423Z,7.30
2019-05-04T05:47:24.938Z,6.30
2019-05-04T05:48:34.826Z,6.70
2019-05-04T05:49:35.956Z,6.10
2019-05-04T05:50:41.465Z,7.20
2019-05-04T05:51:48.626Z,7.80
2019-05-04T05:52:52.475Z,6.90
2019-05-04T05:53:59.307Z,5.50
2019-05-04T05:55:04.974Z,5.10
2019-05-04T05:56:08.986Z,7.30
2019-05-04T05:57:15.996Z,5.40
2019-05-04T05:58:20.021Z,6.10
2019-05-04T05:59:27.964Z,6.30
2019-05-04T06:00:31.024Z,7.40
2019-05-04T06:01:36.522Z,8.00
2019-05-04T06:02:49.683Z,5.50
2019-05-04T06:03:47.543Z,5.60
2019-05-04T06:04:53.451Z,7.90
2019-05-04T06:06:02.262Z,6.30
2019-05-04T06:07:05.193Z,5.30
2019-05-04T06:08:10.267Z,7.50
2019-05-04T06:09:19.466Z,7.00
2019-05-04T06:10:26.875Z,5.70
2019-05-04T06:11:29.470Z,7.00
2019-05-04T06:12:31.609Z,7.20
2019-05-04T06:13:39.465Z,7.40
2019-05-04T06:14:44.649Z,8.20
2019-05-04T06:15:48.122Z,6.00
2019-05-04T06:16:56.813Z,6.50
2019-05-04T06:17:59.133Z,7.00
2019-05-04T06:19:04.938Z,6.50
2019-05-04T06:20:14.852Z,5.30
2019-05-04T06:21:15.661Z,6.20
2019-05-04T06:22:21.170Z,6.50
2019-05-04T06:23:29.384Z,5.40
2019-05-04T06:24:32.192Z,5.60
2019-05-04T06:25:43.827Z,7.30
2019-05-04T06:26:44.322Z,7.80
2019-05-04T06:27:48.811Z,7.40
2019-05-04T06:28:54.727Z,6.30
2019-05-04T06:29:59.724Z,6.40
2019-05-04T06:31:11.480Z,5.60
2019-05-04T06:32:10.733Z,8.30
2019-05-04T06:33:16.269Z,6.60
2019-05-04T06:34:23.847Z,9.30
2019-05-04T06:35:27.269Z,5.40
2019-05-04T06:36:32.769Z,9.00
2019-05-04T06:37:38.280Z,7.70
2019-05-04T06:38:48.310Z,6.60
2019-05-04T06:39:49.288Z,9.10
2019-05-04T06:40:57.142Z,7.00
2019-05-04T06:42:00.310Z,7.70
2019-05-04T06:43:07.710Z,7.70
2019-05-04T06:44:11.337Z,6.90
2019-05-04T06:45:18.024Z,8.30
2019-05-04T06:46:22.347Z,7.90
2019-05-04T06:47:27.845Z,6.30
2019-05-04T06:48:35.561Z,8.30
2019-05-04T06:49:41.162Z,7.60
2019-05-04T06:50:44.806Z,6.60
2019-05-04T06:51:49.868Z,9.00
2019-05-04T06:52:55.387Z,7.50
2019-05-04T06:54:00.899Z,7.40
2019-05-04T06:55:15.079Z,7.80
2019-05-04T06:56:22.150Z,7.50
2019-05-04T06:57:20.816Z,8.10
2019-05-04T06:58:22.926Z,7.80
2019-05-04T06:59:30.562Z,8.40
2019-05-04T07:00:38.961Z,7.40
2019-05-04T07:01:39.456Z,6.90
2019-05-04T07:02:44.958Z,8.00
2019-05-04T07:03:55.074Z,7.40
2019-05-04T07:04:55.969Z,10.90
2019-05-04T07:06:03.418Z,7.50
2019-05-04T07:07:07.824Z,7.40
2019-05-04T07:08:25.845Z,8.10
2019-05-04T07:09:19.573Z,8.90
2019-05-04T07:10:24.553Z,9.10
2019-05-04T07:11:32.518Z,8.10
2019-05-04T07:12:34.775Z,7.10
2019-05-04T07:13:40.041Z,7.90
2019-05-04T07:14:45.572Z,8.40
2019-05-04T07:15:55.186Z,9.70
2019-05-04T07:16:56.557Z,10.00
2019-05-04T07:18:02.070Z,8.70
2019-05-04T07:19:10.639Z,9.30
2019-05-04T07:20:15.149Z,8.30
2019-05-04T07:21:19.693Z,7.40
2019-05-04T07:22:31.079Z,7.40
2019-05-04T07:23:29.606Z,8.60
2019-05-04T07:24:38.085Z,9.30
2019-05-04T07:25:40.619Z,7.70
2019-05-04T07:26:46.133Z,9.90
2019-05-04T07:27:54.382Z,9.60
2019-05-04T07:28:57.150Z,9.60
2019-05-04T07:30:04.458Z,8.70
2019-05-04T07:31:10.071Z,9.70
2019-05-04T07:32:15.172Z,10.80
2019-05-04T07:33:19.190Z,9.40
2019-05-04T07:34:24.688Z,8.60
2019-05-04T07:35:32.068Z,9.70
2019-05-04T07:36:40.083Z,7.10
2019-05-04T07:37:46.470Z,8.80
2019-05-04T07:38:50.901Z,10.10
2019-05-04T07:40:04.605Z,8.80
2019-05-04T07:41:09.566Z,10.30
2019-05-04T07:42:07.652Z,7.70
2019-05-04T07:43:08.755Z,8.30
2019-05-04T07:44:14.883Z,7.90
2019-05-04T07:45:20.336Z,9.70
2019-05-04T07:46:25.448Z,5.60
2019-05-04T07:47:30.792Z,6.30
2019-05-04T07:48:39.683Z,6.20
2019-05-04T07:49:41.807Z,7.40
2019-05-04T07:50:47.317Z,6.50
2019-05-04T07:51:53.926Z,5.30
2019-05-04T07:52:59.697Z,5.30
2019-05-04T07:54:05.134Z,6.80
2019-05-04T07:55:09.345Z,7.20
2019-05-04T07:56:14.858Z,7.10
2019-05-04T07:57:24.695Z,6.70
2019-05-04T07:58:28.235Z,6.60
2019-05-04T07:59:31.382Z,5.40
2019-05-04T08:00:40.472Z,5.10
2019-05-04T08:01:49.603Z,6.50
2019-05-04T08:02:49.146Z,4.60
2019-05-04T08:03:54.611Z,5.00
2019-05-04T08:04:58.926Z,7.50
2019-05-04T08:06:05.124Z,5.10
2019-05-04T08:07:09.935Z,5.00
2019-05-04T08:08:19.600Z,4.90
2019-05-04T08:09:21.108Z,5.90
2019-05-04T08:10:30.222Z,4.90
2019-05-04T08:11:31.991Z,5.90
2019-05-04T08:12:42.425Z,5.10
2019-05-04T08:13:45.153Z,5.60
2019-05-04T08:15:05.942Z,6.10
2019-05-04T08:15:54.390Z,5.90
2019-05-04T08:16:59.768Z,6.00
2019-05-04T08:18:06.147Z,6.70
2019-05-04T08:19:10.543Z,4.90
2019-05-04T08:20:20.770Z,6.30
2019-05-04T08:21:21.553Z,7.20
2019-05-04T08:22:27.055Z,7.00
2019-05-04T08:23:36.919Z,5.10
2019-05-04T08:24:38.082Z,4.90
2019-05-04T08:25:48.708Z,4.50
2019-05-04T08:26:49.099Z,5.30
2019-05-04T08:27:54.916Z,5.80
2019-05-04T08:29:00.116Z,6.40
2019-05-04T08:30:09.757Z,5.50
2019-05-04T08:31:11.133Z,5.30
2019-05-04T08:32:16.639Z,5.70
2019-05-04T08:33:27.541Z,4.40
2019-05-04T08:34:28.202Z,5.30
2019-05-04T08:35:34.979Z,8.60
2019-05-04T08:36:38.679Z,6.40
2019-05-04T08:37:44.887Z,5.20
2019-05-04T08:38:50.847Z,4.10
2019-05-04T08:39:55.202Z,4.50
2019-05-04T08:41:00.713Z,5.00
2019-05-04T08:42:22.645Z,5.60
2019-05-04T08:43:12.446Z,5.20
2019-05-04T08:44:17.534Z,5.50
2019-05-04T08:45:24.483Z,5.70
2019-05-04T08:46:30.017Z,4.50
2019-05-04T08:47:34.139Z,5.00
2019-05-04T08:48:42.565Z,4.50
2019-05-04T08:49:45.212Z,6.70
2019-05-04T08:50:50.287Z,4.70
2019-05-04T08:52:03.113Z,5.40
2019-05-04T08:53:02.170Z,4.70
2019-05-04T08:54:10.873Z,5.20
2019-05-04T08:55:12.331Z,5.20
2019-05-04T08:56:22.437Z,4.20
2019-05-04T08:57:25.244Z,3.60
2019-05-04T08:58:29.319Z,5.10
2019-05-04T08:59:36.939Z,3.10
2019-05-04T09:00:39.875Z,3.40
2019-05-04T09:01:53.497Z,3.60
2019-05-04T09:02:50.895Z,4.00
2019-05-04T09:04:00.537Z,4.00
2019-05-04T09:05:01.922Z,4.00
2019-05-04T09:06:13.174Z,4.30
2019-05-04T09:07:22.703Z,5.40
2019-05-04T09:08:18.513Z,3.10
2019-05-04T09:09:26.689Z,3.10
2019-05-04T09:10:29.554Z,4.20
2019-05-04T09:11:38.910Z,4.90
2019-05-04T09:12:43.173Z,3.20
2019-05-04T09:13:50.641Z,3.30
2019-05-04T09:14:51.498Z,4.60
2019-05-04T09:15:59.530Z,4.20
2019-05-04T09:17:04.633Z,3.30
2019-05-04T09:18:08.020Z,4.30
2019-05-04T09:19:15.346Z,4.90
2019-05-04T09:20:19.042Z,4.10
2019-05-04T09:21:24.655Z,5.60
2019-05-04T09:22:30.169Z,3.80
2019-05-04T09:23:35.581Z,5.50
2019-05-04T09:24:46.452Z,4.80
2019-05-04T09:25:46.599Z,4.10
2019-05-04T09:26:52.101Z,3.50
2019-05-04T09:28:00.282Z,4.70
2019-05-04T09:29:04.872Z,4.30
2019-05-04T09:30:12.602Z,5.00
2019-05-04T09:31:14.804Z,4.30
2019-05-04T09:32:30.899Z,4.20
2019-05-04T09:33:32.411Z,5.10
2019-05-04T09:34:32.148Z,3.30
2019-05-04T09:35:48.380Z,5.40
2019-05-04T09:36:41.679Z,4.00
2019-05-04T09:37:49.561Z,4.70
2019-05-04T09:38:52.711Z,3.30
2019-05-04T09:40:02.778Z,4.90
2019-05-04T09:41:04.843Z,6.20
2019-05-04T09:42:09.226Z,3.20
2019-05-04T09:43:18.828Z,3.50
2019-05-04T09:44:20.246Z,3.00
2019-05-04T09:45:28.508Z,4.60
2019-05-04T09:46:31.279Z,4.10
2019-05-04T09:47:36.776Z,3.50
2019-05-04T09:48:47.094Z,5.00
2019-05-04T09:49:47.799Z,3.40
2019-05-04T09:50:54.857Z,3.40
2019-05-04T09:51:59.916Z,4.00
2019-05-04T09:53:15.442Z,3.30
2019-05-04T09:54:14.455Z,3.60
2019-05-04T09:55:15.402Z,5.10
2019-05-04T09:56:20.848Z,3.50
2019-05-04T09:57:26.366Z,5.40
2019-05-04T09:58:31.883Z,3.20
2019-05-04T09:59:46.734Z,4.60
2019-05-04T10:00:44.674Z,6.10
2019-05-04T10:01:59.416Z,4.50
2019-05-04T10:02:54.245Z,4.10
2019-05-04T10:03:59.420Z,5.70
2019-05-04T10:05:04.932Z,4.60
2019-05-04T10:06:10.446Z,5.70
2019-05-04T10:07:15.956Z,3.90
2019-05-04T10:08:21.471Z,2.30
2019-05-04T10:09:26.966Z,4.20
2019-05-04T10:10:32.557Z,4.90
2019-05-04T10:11:37.995Z,5.30
2019-05-04T10:12:49.679Z,3.70
2019-05-04T10:13:49.019Z,5.40
2019-05-04T10:14:54.534Z,3.30
2019-05-04T10:16:00.032Z,5.00
2019-05-04T10:17:05.543Z,3.70
2019-05-04T10:18:11.045Z,3.80
2019-05-04T10:19:16.558Z,5.60
2019-05-04T10:20:22.069Z,5.60
2019-05-04T10:21:27.574Z,4.40
2019-05-04T10:22:34.211Z,3.00
2019-05-04T10:23:38.595Z,3.40
2019-05-04T10:24:45.454Z,3.70
2019-05-04T10:25:49.617Z,4.00
2019-05-04T10:26:55.129Z,4.50
2019-05-04T10:28:00.638Z,4.30
2019-05-04T10:29:06.156Z,2.90
2019-05-04T10:30:13.216Z,3.80
2019-05-04T10:31:17.173Z,3.40
2019-05-04T10:32:24.165Z,4.00
2019-05-04T10:33:28.197Z,3.40
2019-05-04T10:34:33.710Z,3.30
2019-05-04T10:35:39.207Z,6.80
2019-05-04T10:36:45.119Z,2.70
2019-05-04T10:37:50.229Z,2.90
2019-05-04T10:38:55.746Z,3.20
2019-05-04T10:40:01.274Z,2.90
2019-05-04T10:41:06.768Z,3.60
2019-05-04T10:42:12.275Z,2.30
2019-05-04T10:43:17.785Z,3.10
2019-05-04T10:44:24.309Z,5.40
2019-05-04T10:45:28.797Z,3.40
2019-05-04T10:46:34.327Z,4.00
2019-05-04T10:47:39.831Z,3.10
2019-05-04T10:48:45.336Z,3.80
2019-05-04T10:49:50.842Z,3.70
2019-05-04T10:50:56.356Z,2.70
2019-05-04T10:52:01.872Z,4.40
2019-05-04T10:53:07.374Z,4.40
2019-05-04T10:54:14.767Z,4.20
2019-05-04T10:55:18.396Z,3.60
2019-05-04T10:56:24.916Z,4.10
2019-05-04T10:57:29.416Z,5.30
2019-05-04T10:58:34.931Z,3.60
2019-05-04T10:59:40.452Z,4.90
2019-05-04T11:00:45.946Z,3.80
2019-05-04T11:01:54.242Z,4.20
2019-05-04T11:02:56.964Z,3.30
2019-05-04T11:04:02.474Z,4.80
2019-05-04T11:05:07.997Z,3.10
2019-05-04T11:06:15.500Z,3.90
2019-05-04T11:07:19.014Z,3.80
2019-05-04T11:08:24.531Z,4.20
2019-05-04T11:09:30.032Z,4.50
2019-05-04T11:10:35.552Z,1.80
2019-05-04T11:11:41.059Z,3.90
2019-05-04T11:12:46.571Z,4.90
2019-05-04T11:14:02.312Z,3.60
2019-05-04T11:14:57.602Z,2.30
2019-05-04T11:16:03.098Z,3.60
2019-05-04T11:17:08.628Z,3.50
2019-05-04T11:18:14.337Z,3.40
2019-05-04T11:19:19.631Z,3.30
2019-05-04T11:20:25.139Z,3.30
2019-05-04T11:21:30.652Z,3.40
2019-05-04T11:22:36.181Z,4.80
2019-05-04T11:23:41.691Z,2.60
2019-05-04T11:24:47.179Z,4.80
2019-05-04T11:25:54.708Z,3.70
2019-05-04T11:26:58.204Z,3.80
2019-05-04T11:28:05.213Z,4.20
2019-05-04T11:29:09.239Z,3.50
2019-05-04T11:30:15.118Z,2.40
2019-05-04T11:31:20.259Z,4.30
2019-05-04T11:32:25.759Z,4.20
2019-05-04T11:33:31.283Z,3.90
2019-05-04T11:34:36.794Z,3.80
2019-05-04T11:35:42.332Z,2.50
2019-05-04T11:36:47.813Z,3.90
2019-05-04T11:37:55.170Z,4.80
2019-05-04T11:38:58.864Z,3.50
2019-05-04T11:40:05.015Z,3.80
2019-05-04T11:41:09.868Z,3.40
2019-05-04T11:42:15.370Z,4.20
2019-05-04T11:43:29.554Z,4.20
2019-05-04T11:44:27.842Z,4.10
2019-05-04T11:45:31.902Z,1.80
2019-05-04T11:46:37.412Z,4.30
2019-05-04T11:47:44.725Z,2.50
2019-05-04T11:48:48.432Z,2.60
2019-05-04T11:49:53.943Z,2.90
2019-05-04T11:50:59.459Z,3.00
2019-05-04T11:52:04.961Z,3.40
2019-05-04T11:53:10.471Z,3.40
2019-05-04T11:54:15.979Z,4.00
2019-05-04T11:55:21.508Z,2.30
2019-05-04T11:56:27.022Z,3.20
2019-05-04T11:57:32.522Z,1.70
2019-05-04T11:58:38.027Z,2.80
2019-05-04T11:59:45.255Z,2.40
2019-05-04T12:00:49.054Z,3.40
2019-05-04T12:01:54.821Z,1.50
2019-05-04T12:03:01.873Z,2.30
2019-05-04T12:04:07.971Z,3.40
2019-05-04T12:05:11.089Z,2.30
2019-05-04T12:06:16.590Z,3.20
2019-05-04T12:07:22.131Z,2.40
2019-05-04T12:08:27.694Z,1.40
2019-05-04T12:09:34.525Z,2.20
2019-05-04T12:10:38.640Z,3.20
2019-05-04T12:11:44.979Z,4.10
2019-05-04T12:12:49.656Z,2.60
2019-05-04T12:13:55.165Z,2.80
2019-05-04T12:15:00.692Z,2.10
2019-05-04T12:16:06.184Z,2.10
2019-05-04T12:17:11.693Z,2.50
2019-05-04T12:18:17.206Z,2.40
2019-05-04T12:19:24.463Z,2.90
2019-05-04T12:20:28.230Z,3.30
2019-05-04T12:21:33.740Z,3.10
2019-05-04T12:22:39.263Z,2.90
2019-05-04T12:23:44.959Z,2.20
2019-05-04T12:24:50.281Z,4.40
2019-05-04T12:25:55.799Z,3.40
2019-05-04T12:27:01.289Z,3.40
2019-05-04T12:28:06.801Z,3.10
2019-05-04T12:29:12.314Z,3.30
2019-05-04T12:30:17.821Z,2.70
2019-05-04T12:31:24.715Z,4.60
2019-05-04T12:32:28.853Z,3.90
2019-05-04T12:33:34.355Z,4.30
2019-05-04T12:34:39.870Z,3.60
2019-05-04T12:35:45.406Z,2.70
2019-05-04T12:36:50.886Z,3.50
2019-05-04T12:37:56.412Z,3.00
2019-05-04T12:39:01.919Z,4.30
2019-05-04T12:40:07.416Z,3.80
2019-05-04T12:41:12.947Z,4.10
2019-05-04T12:42:18.450Z,4.80
2019-05-04T12:43:24.454Z,4.40
2019-05-04T12:44:29.468Z,2.80
2019-05-04T12:45:34.977Z,2.40
2019-05-04T12:46:40.502Z,2.00
2019-05-04T12:47:46.044Z,3.70
2019-05-04T12:48:51.506Z,2.00
2019-05-04T12:49:57.034Z,2.60
2019-05-04T12:51:04.844Z,3.10
2019-05-04T12:52:08.044Z,2.60
2019-05-04T12:53:14.689Z,3.20
2019-05-04T12:54:19.092Z,3.30
2019-05-04T12:55:24.766Z,2.50
2019-05-04T12:56:30.087Z,4.20
2019-05-04T12:57:35.610Z,4.20
2019-05-04T12:58:41.113Z,3.40
2019-05-04T12:59:46.618Z,3.80
2019-05-04T13:00:52.126Z,3.60
2019-05-04T13:01:57.641Z,5.10
2019-05-04T13:03:03.161Z,4.30
2019-05-04T13:04:08.663Z,3.90
2019-05-04T13:05:27.658Z,4.40
2019-05-04T13:06:19.686Z,4.50
2019-05-04T13:07:25.199Z,3.80
2019-05-04T13:08:30.709Z,5.00
2019-05-04T13:09:36.214Z,4.00
2019-05-04T13:10:41.738Z,4.70
2019-05-04T13:11:49.930Z,5.60
2019-05-04T13:12:54.647Z,5.00
2019-05-04T13:13:58.261Z,4.70
2019-05-04T13:15:04.508Z,4.90
2019-05-04T13:16:09.284Z,3.50
2019-05-04T13:17:15.502Z,4.20
2019-05-04T13:18:20.296Z,5.60
2019-05-04T13:19:25.810Z,4.60
2019-05-04T13:20:31.341Z,5.20
2019-05-04T13:21:36.832Z,4.40
2019-05-04T13:22:42.345Z,4.20
2019-05-04T13:23:47.851Z,3.40
2019-05-04T13:24:55.643Z,3.40
2019-05-04T13:25:58.891Z,4.00
2019-05-04T13:27:05.200Z,5.30
2019-05-04T13:28:09.894Z,4.50
2019-05-04T13:29:15.394Z,4.20
2019-05-04T13:30:20.917Z,5.20
2019-05-04T13:31:26.423Z,3.10
2019-05-04T13:32:31.938Z,4.70
2019-05-04T13:33:37.451Z,4.70
2019-05-04T13:34:44.598Z,4.60
2019-05-04T13:35:48.462Z,5.30
2019-05-04T13:36:54.486Z,3.60
2019-05-04T13:37:59.505Z,4.00
2019-05-04T13:39:05.001Z,2.30
2019-05-04T13:40:10.516Z,3.30
2019-05-04T13:41:16.020Z,4.70
2019-05-04T13:42:21.526Z,4.00
2019-05-04T13:43:27.053Z,3.10
2019-05-04T13:44:34.678Z,3.40
2019-05-04T13:45:38.065Z,3.60
2019-05-04T13:46:44.443Z,3.90
2019-05-04T13:47:49.083Z,4.70
2019-05-04T13:48:55.679Z,4.70
2019-05-04T13:50:00.102Z,4.50
2019-05-04T13:51:05.611Z,3.50
2019-05-04T13:52:11.118Z,4.40
2019-05-04T13:53:16.630Z,2.60
2019-05-04T13:54:22.141Z,4.10
2019-05-04T13:55:27.648Z,2.50
2019-05-04T13:56:35.065Z,2.80
2019-05-04T13:57:38.678Z,3.40
2019-05-04T13:58:44.362Z,3.10
2019-05-04T13:59:49.702Z,4.30
2019-05-04T14:00:55.213Z,3.50
2019-05-04T14:02:00.727Z,4.20
2019-05-04T14:03:06.226Z,3.80
2019-05-04T14:04:11.740Z,3.60
2019-05-04T14:05:17.261Z,2.50
2019-05-04T14:06:24.631Z,3.60
2019-05-04T14:07:28.274Z,4.00
2019-05-04T14:08:33.781Z,3.10
2019-05-04T14:09:39.286Z,3.30
2019-05-04T14:10:44.797Z,3.40
2019-05-04T14:11:50.317Z,3.00
2019-05-04T14:12:55.827Z,4.10
2019-05-04T14:14:01.341Z,3.20
2019-05-04T14:15:06.840Z,3.10
2019-05-04T14:16:14.627Z,2.80
2019-05-04T14:17:17.857Z,4.00
2019-05-04T14:18:25.277Z,4.90
2019-05-04T14:19:28.878Z,4.10
2019-05-04T14:20:34.965Z,3.20
2019-05-04T14:21:39.895Z,4.00
2019-05-04T14:22:45.413Z,4.70
2019-05-04T14:23:50.911Z,2.70
2019-05-04T14:24:56.424Z,4.00
2019-05-04T14:26:01.933Z,3.00
2019-05-04T14:27:07.445Z,6.60
2019-05-04T14:28:14.653Z,3.40
2019-05-04T14:29:18.734Z,2.90
2019-05-04T14:30:24.789Z,3.00
2019-05-04T14:31:29.476Z,3.50
2019-05-04T14:32:37.220Z,9.50